createdAt,value
2019-05-20T00:00:05.104Z,0
2019-05-20T00:01:04.378Z,0
2019-05-20T00:02:01.847Z,0
2019-05-20T00:03:01.646Z,0
2019-05-20T00:04:01.845Z,0
2019-05-20T00:05:01.814Z,0
2019-05-20T00:06:02.477Z,0
2019-05-20T00:07:02.046Z,0
2019-05-20T00:08:01.566Z,0
2019-05-20T00:09:01.760Z,0
2019-05-20T00:10:03.008Z,0
2019-05-20T00:11:05.002Z,0
2019-05-20T00:12:06.401Z,0
2019-05-20T00:13:01.794Z,0
2019-05-20T00:14:01.791Z,0
2019-05-20T00:15:01.795Z,0
2019-05-20T00:16:01.317Z,0
2019-05-20T00:17:02.055Z,0
2019-05-20T00:18:01.792Z,0
2019-05-20T00:19:01.291Z,0
2019-05-20T00:20:01.545Z,0
2019-05-20T00:21:04.815Z,0
2019-05-20T00:22:04.857Z,0
2019-05-20T00:23:01.784Z,0
2019-05-20T00:24:01.812Z,0
2019-05-20T00:25:01.539Z,0
2019-05-20T00:26:02.021Z,0
2019-05-20T00:27:01.547Z,0
2019-05-20T00:28:01.524Z,0
2019-05-20T00:29:01.699Z,0
2019-05-20T00:30:02.010Z,0
2019-05-20T00:31:01.565Z,0
2019-05-20T00:32:04.780Z,0
2019-05-20T00:33:04.563Z,0
2019-05-20T00:34:01.997Z,0
2019-05-20T00:35:01.826Z,0
2019-05-20T00:36:01.498Z,0
2019-05-20T00:37:01.805Z,0
2019-05-20T00:38:01.752Z,0
2019-05-20T00:39:01.754Z,0
2019-05-20T00:40:01.758Z,0
2019-05-20T00:41:02.105Z,0
2019-05-20T00:42:02.556Z,0
2019-05-20T00:43:04.774Z,0
2019-05-20T00:44:08.015Z,0
2019-05-20T00:45:01.966Z,0
2019-05-20T00:46:01.746Z,0
2019-05-20T00:47:01.718Z,0
2019-05-20T00:48:01.242Z,0
2019-05-20T00:49:01.752Z,0
2019-05-20T00:50:01.465Z,0
2019-05-20T00:51:01.459Z,0
2019-05-20T00:52:01.965Z,0
2019-05-20T00:53:04.498Z,0
2019-05-20T00:54:03.546Z,0
2019-05-20T00:55:01.468Z,0
2019-05-20T00:56:01.947Z,0
2019-05-20T00:57:01.691Z,0
2019-05-20T00:58:01.981Z,0
2019-05-20T00:59:01.712Z,0
2019-05-20T01:00:01.961Z,0
2019-05-20T01:01:01.968Z,0
2019-05-20T01:02:01.505Z,0
2019-05-20T01:03:05.935Z,0
2019-05-20T01:04:04.710Z,0
2019-05-20T01:05:08.223Z,0
2019-05-20T01:06:01.984Z,0
2019-05-20T01:07:02.005Z,0
2019-05-20T01:08:01.441Z,0
2019-05-20T01:09:01.194Z,0
2019-05-20T01:10:01.664Z,0
2019-05-20T01:11:01.664Z,0
2019-05-20T01:12:01.434Z,0
2019-05-20T01:13:01.709Z,0
2019-05-20T01:14:01.899Z,0
2019-05-20T01:15:03.101Z,0
2019-05-20T01:16:04.438Z,0
2019-05-20T01:17:01.660Z,0
2019-05-20T01:18:01.655Z,0
2019-05-20T01:19:01.413Z,0
2019-05-20T01:20:01.930Z,0
2019-05-20T01:21:01.725Z,0
2019-05-20T01:22:01.637Z,0
2019-05-20T01:23:01.127Z,0
2019-05-20T01:24:01.620Z,0
2019-05-20T01:25:04.418Z,0
2019-05-20T01:26:07.649Z,0
2019-05-20T01:27:01.453Z,0
2019-05-20T01:28:01.684Z,0
2019-05-20T01:29:01.611Z,0
2019-05-20T01:30:01.153Z,0
2019-05-20T01:31:01.614Z,0
2019-05-20T01:32:01.595Z,0
2019-05-20T01:33:17.200Z,0
2019-05-20T01:34:01.382Z,0
2019-05-20T01:35:01.594Z,0
2019-05-20T01:36:07.609Z,0
2019-05-20T01:37:04.635Z,0
2019-05-20T01:38:01.837Z,0
2019-05-20T01:39:01.349Z,0
2019-05-20T01:40:01.084Z,0
2019-05-20T01:41:01.327Z,0
2019-05-20T01:42:01.126Z,0
2019-05-20T01:43:01.331Z,0
2019-05-20T01:44:01.576Z,0
2019-05-20T01:45:01.391Z,0
2019-05-20T01:46:01.300Z,0
2019-05-20T01:47:07.417Z,0
2019-05-20T01:48:04.089Z,0
2019-05-20T01:49:01.588Z,0
2019-05-20T01:50:01.554Z,0
2019-05-20T01:51:01.819Z,0
2019-05-20T01:52:01.621Z,0
2019-05-20T01:53:01.562Z,0
2019-05-20T01:54:01.866Z,0
2019-05-20T01:55:01.567Z,0
2019-05-20T01:56:01.823Z,0
2019-05-20T01:57:03.252Z,0
2019-05-20T01:58:04.391Z,0
2019-05-20T01:59:01.525Z,0
2019-05-20T02:00:01.772Z,0
2019-05-20T02:01:01.542Z,0
2019-05-20T02:02:01.794Z,0
2019-05-20T02:03:01.285Z,0
2019-05-20T02:04:01.561Z,0
2019-05-20T02:05:01.333Z,0
2019-05-20T02:06:01.768Z,0
2019-05-20T02:07:01.775Z,0
2019-05-20T02:08:05.569Z,0
2019-05-20T02:09:04.805Z,0
2019-05-20T02:10:01.521Z,0
2019-05-20T02:11:03.319Z,0
2019-05-20T02:12:01.247Z,0
2019-05-20T02:13:01.797Z,0
2019-05-20T02:14:01.626Z,0
2019-05-20T02:15:00.996Z,0
2019-05-20T02:16:00.981Z,0
2019-05-20T02:17:04.984Z,0
2019-05-20T02:18:01.720Z,0
2019-05-20T02:19:04.304Z,0
2019-05-20T02:20:02.955Z,0
2019-05-20T02:21:01.773Z,0
2019-05-20T02:22:01.782Z,0
2019-05-20T02:23:01.459Z,0
2019-05-20T02:24:01.488Z,0
2019-05-20T02:25:01.510Z,0
2019-05-20T02:26:01.201Z,0
2019-05-20T02:27:01.228Z,0
2019-05-20T02:28:01.207Z,0
2019-05-20T02:29:01.666Z,0
2019-05-20T02:30:04.779Z,0
2019-05-20T02:31:12.338Z,0
2019-05-20T02:32:01.724Z,0
2019-05-20T02:33:01.522Z,0
2019-05-20T02:34:02.496Z,0
2019-05-20T02:35:01.762Z,0
2019-05-20T02:36:01.326Z,0
2019-05-20T02:37:01.696Z,0
2019-05-20T02:38:01.699Z,0
2019-05-20T02:39:01.447Z,0
2019-05-20T02:40:04.712Z,0
2019-05-20T02:41:03.118Z,0
2019-05-20T02:42:01.167Z,0
2019-05-20T02:43:01.481Z,0
2019-05-20T02:44:01.676Z,0
2019-05-20T02:45:01.454Z,0
2019-05-20T02:46:01.161Z,0
2019-05-20T02:47:01.654Z,0
2019-05-20T02:48:01.676Z,0
2019-05-20T02:49:01.425Z,0
2019-05-20T02:50:01.655Z,0
2019-05-20T02:51:02.578Z,0
2019-05-20T02:52:04.692Z,0
2019-05-20T02:53:01.434Z,0
2019-05-20T02:54:01.417Z,0
2019-05-20T02:55:01.644Z,0
2019-05-20T02:56:01.708Z,0
2019-05-20T02:57:01.632Z,0
2019-05-20T02:58:01.811Z,0
2019-05-20T02:59:01.637Z,0
2019-05-20T03:00:01.400Z,0
2019-05-20T03:01:01.153Z,0
2019-05-20T03:02:07.651Z,0
2019-05-20T03:03:04.426Z,0
2019-05-20T03:04:20.520Z,0
2019-05-20T03:05:01.675Z,0
2019-05-20T03:06:01.599Z,0
2019-05-20T03:07:01.145Z,0
2019-05-20T03:08:01.147Z,0
2019-05-20T03:09:01.112Z,0
2019-05-20T03:10:01.623Z,0
2019-05-20T03:11:01.395Z,0
2019-05-20T03:12:03.021Z,0
2019-05-20T03:13:06.185Z,0
2019-05-20T03:14:01.371Z,0
2019-05-20T03:15:01.629Z,0
2019-05-20T03:16:01.113Z,0
2019-05-20T03:17:01.586Z,0
2019-05-20T03:18:01.334Z,0
2019-05-20T03:19:01.390Z,0
2019-05-20T03:20:01.083Z,0
2019-05-20T03:21:01.398Z,0
2019-05-20T03:22:01.575Z,0
2019-05-20T03:23:07.997Z,0
2019-05-20T03:24:04.622Z,0
2019-05-20T03:25:00.838Z,0
2019-05-20T03:26:01.627Z,0
2019-05-20T03:27:01.566Z,0
2019-05-20T03:28:01.315Z,0
2019-05-20T03:29:06.193Z,0
2019-05-20T03:30:01.556Z,0
2019-05-20T03:31:01.115Z,0
2019-05-20T03:32:01.781Z,0
2019-05-20T03:33:01.557Z,0
2019-05-20T03:34:04.404Z,0
2019-05-20T03:35:10.465Z,0
2019-05-20T03:36:01.117Z,0
2019-05-20T03:37:01.627Z,0
2019-05-20T03:38:01.521Z,0
2019-05-20T03:39:01.280Z,0
2019-05-20T03:40:01.559Z,0
2019-05-20T03:41:01.125Z,0
2019-05-20T03:42:01.300Z,0
2019-05-20T03:43:01.268Z,0
2019-05-20T03:44:01.644Z,0
2019-05-20T03:45:04.304Z,0
2019-05-20T03:46:07.805Z,0
2019-05-20T03:47:01.536Z,5
2019-05-20T03:48:01.034Z,5
2019-05-20T03:49:01.500Z,5
2019-05-20T03:50:01.005Z,5
2019-05-20T03:51:00.752Z,5
2019-05-20T03:52:02.045Z,5
2019-05-20T03:53:01.347Z,5
2019-05-20T03:54:01.235Z,5
2019-05-20T03:55:03.952Z,5
2019-05-20T03:56:04.296Z,5
2019-05-20T03:57:01.329Z,5
2019-05-20T03:58:01.090Z,5
2019-05-20T03:59:01.487Z,5
2019-05-20T04:00:01.263Z,5
2019-05-20T04:01:01.512Z,5
2019-05-20T04:02:01.546Z,10
2019-05-20T04:03:00.979Z,10
2019-05-20T04:04:01.459Z,10
2019-05-20T04:05:11.802Z,10
2019-05-20T04:06:04.330Z,10
2019-05-20T04:07:07.760Z,10
2019-05-20T04:08:01.285Z,10
2019-05-20T04:09:01.189Z,10
2019-05-20T04:10:01.456Z,10
2019-05-20T04:11:01.231Z,10
2019-05-20T04:12:01.015Z,10
2019-05-20T04:13:01.179Z,10
2019-05-20T04:14:01.219Z,15
2019-05-20T04:15:01.452Z,15
2019-05-20T04:16:00.936Z,15
2019-05-20T04:17:02.780Z,15
2019-05-20T04:18:07.235Z,15
2019-05-20T04:19:03.454Z,20
2019-05-20T04:20:01.190Z,20
2019-05-20T04:21:01.411Z,20
2019-05-20T04:22:01.180Z,25
2019-05-20T04:23:01.471Z,25
2019-05-20T04:24:06.043Z,25
2019-05-20T04:25:01.207Z,25
2019-05-20T04:26:01.514Z,25
2019-05-20T04:27:03.947Z,25
2019-05-20T04:28:04.210Z,25
2019-05-20T04:29:00.657Z,25
2019-05-20T04:30:00.914Z,25
2019-05-20T04:31:00.679Z,25
2019-05-20T04:32:01.119Z,25
2019-05-20T04:33:00.666Z,25
2019-05-20T04:34:00.882Z,25
2019-05-20T04:35:18.630Z,25
2019-05-20T04:36:01.164Z,25
2019-05-20T04:37:01.379Z,25
2019-05-20T04:38:07.132Z,25
2019-05-20T04:39:03.683Z,25
2019-05-20T04:40:01.384Z,25
2019-05-20T04:41:01.193Z,25
2019-05-20T04:42:00.892Z,30
2019-05-20T04:43:01.398Z,30
2019-05-20T04:44:01.145Z,30
2019-05-20T04:45:01.456Z,30
2019-05-20T04:46:01.380Z,30
2019-05-20T04:47:04.985Z,30
2019-05-20T04:48:01.372Z,35
2019-05-20T04:49:04.230Z,35
2019-05-20T04:50:04.144Z,35
2019-05-20T04:51:00.875Z,35
2019-05-20T04:52:01.357Z,35
2019-05-20T04:53:01.085Z,35
2019-05-20T04:54:00.828Z,35
2019-05-20T04:55:01.344Z,35
2019-05-20T04:56:01.109Z,35
2019-05-20T04:57:01.327Z,30
2019-05-20T04:58:01.319Z,35
2019-05-20T04:59:02.729Z,35
2019-05-20T05:00:04.415Z,40
2019-05-20T05:01:08.037Z,40
2019-05-20T05:02:00.807Z,40
2019-05-20T05:03:01.323Z,45
2019-05-20T05:04:01.063Z,45
2019-05-20T05:05:01.311Z,50
2019-05-20T05:06:01.333Z,50
2019-05-20T05:07:01.056Z,50
2019-05-20T05:08:00.814Z,50
2019-05-20T05:09:00.824Z,50
2019-05-20T05:10:04.086Z,50
2019-05-20T05:11:04.331Z,50
2019-05-20T05:12:01.094Z,50
2019-05-20T05:13:01.017Z,55
2019-05-20T05:14:00.783Z,55
2019-05-20T05:15:01.024Z,55
2019-05-20T05:16:00.834Z,50
2019-05-20T05:17:01.039Z,50
2019-05-20T05:18:01.025Z,55
2019-05-20T05:19:01.268Z,65
2019-05-20T05:20:01.033Z,70
2019-05-20T05:21:03.812Z,70
2019-05-20T05:22:02.949Z,75
2019-05-20T05:23:01.014Z,75
2019-05-20T05:24:08.474Z,75
2019-05-20T05:25:00.773Z,75
2019-05-20T05:26:00.883Z,80
2019-05-20T05:27:01.287Z,85
2019-05-20T05:28:00.756Z,85
2019-05-20T05:29:01.049Z,90
2019-05-20T05:30:01.107Z,90
2019-05-20T05:31:02.754Z,95
2019-05-20T05:32:04.025Z,95
2019-05-20T05:33:07.334Z,95
2019-05-20T05:34:03.927Z,95
2019-05-20T05:35:00.938Z,95
2019-05-20T05:36:02.968Z,100
2019-05-20T05:37:00.499Z,100
2019-05-20T05:38:02.627Z,95
2019-05-20T05:39:00.743Z,90
2019-05-20T05:40:01.306Z,90
2019-05-20T05:41:01.230Z,90
2019-05-20T05:42:04.307Z,90
2019-05-20T05:43:02.417Z,90
2019-05-20T05:44:00.751Z,90
2019-05-20T05:45:01.279Z,95
2019-05-20T05:46:01.373Z,95
2019-05-20T05:47:00.999Z,95
2019-05-20T05:48:00.995Z,100
2019-05-20T05:49:01.258Z,100
2019-05-20T05:50:00.973Z,95
2019-05-20T05:51:00.990Z,100
2019-05-20T05:52:00.977Z,110
2019-05-20T05:53:04.027Z,110
2019-05-20T05:54:04.263Z,115
2019-05-20T05:55:00.972Z,120
2019-05-20T05:56:00.980Z,120
2019-05-20T05:57:00.963Z,125
2019-05-20T05:58:01.217Z,125
2019-05-20T05:59:01.250Z,120
2019-05-20T06:00:01.208Z,120
2019-05-20T06:01:01.236Z,120
2019-05-20T06:02:01.132Z,115
2019-05-20T06:03:01.244Z,110
2019-05-20T06:04:06.989Z,120
2019-05-20T06:05:04.036Z,130
2019-05-20T06:06:18.417Z,140
2019-05-20T06:07:01.098Z,140
2019-05-20T06:08:01.054Z,140
2019-05-20T06:09:01.242Z,135
2019-05-20T06:10:01.034Z,135
2019-05-20T06:11:00.731Z,140
2019-05-20T06:12:00.481Z,140
2019-05-20T06:13:01.236Z,145
2019-05-20T06:14:02.656Z,145
2019-05-20T06:15:04.346Z,150
2019-05-20T06:16:05.754Z,165
2019-05-20T06:17:01.246Z,165
2019-05-20T06:18:00.732Z,165
2019-05-20T06:19:00.975Z,175
2019-05-20T06:20:00.717Z,185
2019-05-20T06:21:00.739Z,185
2019-05-20T06:22:00.749Z,185
2019-05-20T06:23:00.984Z,185
2019-05-20T06:24:01.317Z,190
2019-05-20T06:25:07.519Z,190
2019-05-20T06:26:04.035Z,200
2019-05-20T06:27:00.721Z,205
2019-05-20T06:28:01.195Z,205
2019-05-20T06:29:04.932Z,210
2019-05-20T06:30:01.232Z,190
2019-05-20T06:31:01.227Z,195
2019-05-20T06:32:03.135Z,200
2019-05-20T06:33:00.947Z,205
2019-05-20T06:34:00.766Z,200
2019-05-20T06:35:01.236Z,210
2019-05-20T06:36:04.079Z,200
2019-05-20T06:37:03.809Z,200
2019-05-20T06:38:01.133Z,200
2019-05-20T06:39:01.218Z,205
2019-05-20T06:40:00.950Z,210
2019-05-20T06:41:01.048Z,205
2019-05-20T06:42:00.975Z,205
2019-05-20T06:43:00.899Z,205
2019-05-20T06:44:00.987Z,220
2019-05-20T06:45:04.512Z,210
2019-05-20T06:46:01.826Z,205
2019-05-20T06:47:03.748Z,205
2019-05-20T06:48:00.938Z,200
2019-05-20T06:49:01.209Z,190
2019-05-20T06:50:00.698Z,190
2019-05-20T06:51:00.760Z,185
2019-05-20T06:52:00.701Z,180
2019-05-20T06:53:00.690Z,175
2019-05-20T06:54:00.947Z,170
2019-05-20T06:55:01.227Z,170
2019-05-20T06:56:01.194Z,165
2019-05-20T06:57:04.362Z,160
2019-05-20T06:58:03.729Z,160
2019-05-20T06:59:00.935Z,160
2019-05-20T07:00:00.737Z,160
2019-05-20T07:01:00.482Z,165
2019-05-20T07:02:01.039Z,160
2019-05-20T07:03:00.786Z,165
2019-05-20T07:04:00.965Z,160
2019-05-20T07:05:01.172Z,160
2019-05-20T07:06:00.962Z,155
2019-05-20T07:07:00.947Z,150
2019-05-20T07:08:06.117Z,150
2019-05-20T07:09:07.584Z,150
2019-05-20T07:10:00.705Z,155
2019-05-20T07:11:00.726Z,155
2019-05-20T07:12:02.418Z,160
2019-05-20T07:13:00.942Z,170
2019-05-20T07:14:00.928Z,170
2019-05-20T07:15:01.185Z,170
2019-05-20T07:16:00.964Z,170
2019-05-20T07:17:01.021Z,170
2019-05-20T07:18:00.780Z,165
2019-05-20T07:19:03.716Z,170
2019-05-20T07:20:03.979Z,165
2019-05-20T07:21:00.944Z,165
2019-05-20T07:22:01.205Z,170
2019-05-20T07:23:05.634Z,160
2019-05-20T07:24:01.579Z,160
2019-05-20T07:25:00.975Z,155
2019-05-20T07:26:00.680Z,155
2019-05-20T07:27:01.177Z,155
2019-05-20T07:28:00.491Z,155
2019-05-20T07:29:03.809Z,150
2019-05-20T07:30:03.984Z,145
2019-05-20T07:31:00.754Z,145
2019-05-20T07:32:00.956Z,140
2019-05-20T07:33:00.690Z,130
2019-05-20T07:34:00.751Z,125
2019-05-20T07:35:00.948Z,120
2019-05-20T07:36:00.710Z,105
2019-05-20T07:37:12.275Z,105
2019-05-20T07:38:01.242Z,100
2019-05-20T07:39:00.689Z,100
2019-05-20T07:40:07.504Z,95
2019-05-20T07:41:03.978Z,90
2019-05-20T07:42:00.962Z,90
2019-05-20T07:43:00.931Z,85
2019-05-20T07:44:00.691Z,80
2019-05-20T07:45:00.950Z,80
2019-05-20T07:46:00.937Z,75
2019-05-20T07:47:01.239Z,70
2019-05-20T07:48:00.740Z,70
2019-05-20T07:49:00.874Z,70
2019-05-20T07:50:00.428Z,65
2019-05-20T07:51:07.292Z,65
2019-05-20T07:52:03.800Z,65
2019-05-20T07:53:04.981Z,65
2019-05-20T07:54:01.578Z,65
2019-05-20T07:55:00.913Z,70
2019-05-20T07:56:01.198Z,70
2019-05-20T07:57:01.207Z,70
2019-05-20T07:58:01.205Z,75
2019-05-20T07:59:00.918Z,75
2019-05-20T08:00:01.175Z,80
2019-05-20T08:01:02.605Z,80
2019-05-20T08:02:04.035Z,80
2019-05-20T08:03:05.887Z,80
2019-05-20T08:04:01.166Z,80
2019-05-20T08:05:00.900Z,80
2019-05-20T08:06:00.643Z,75
2019-05-20T08:07:00.527Z,75
2019-05-20T08:08:01.677Z,80
2019-05-20T08:09:01.168Z,80
2019-05-20T08:10:01.045Z,80
2019-05-20T08:11:00.885Z,80
2019-05-20T08:12:03.950Z,85
2019-05-20T08:13:03.720Z,90
2019-05-20T08:14:00.942Z,95
2019-05-20T08:15:00.913Z,95
2019-05-20T08:16:00.943Z,100
2019-05-20T08:17:01.213Z,105
2019-05-20T08:18:01.811Z,115
2019-05-20T08:19:01.163Z,120
2019-05-20T08:20:00.652Z,125
2019-05-20T08:21:00.685Z,130
2019-05-20T08:22:00.946Z,130
2019-05-20T08:23:03.694Z,130
2019-05-20T08:24:03.688Z,130
2019-05-20T08:25:01.185Z,130
2019-05-20T08:26:00.392Z,130
2019-05-20T08:27:00.628Z,125
2019-05-20T08:28:00.855Z,125
2019-05-20T08:29:01.440Z,120
2019-05-20T08:30:01.121Z,120
2019-05-20T08:31:01.358Z,115
2019-05-20T08:32:01.140Z,120
2019-05-20T08:33:00.815Z,120
2019-05-20T08:34:03.684Z,125
2019-05-20T08:35:04.228Z,130
2019-05-20T08:36:00.678Z,135
2019-05-20T08:37:00.622Z,140
2019-05-20T08:38:00.856Z,140
2019-05-20T08:39:00.670Z,145
2019-05-20T08:40:00.601Z,150
2019-05-20T08:41:01.195Z,150
2019-05-20T08:42:00.625Z,155
2019-05-20T08:43:00.928Z,150
2019-05-20T08:44:03.923Z,150
2019-05-20T08:45:02.119Z,140
2019-05-20T08:46:00.856Z,135
2019-05-20T08:47:01.406Z,135
2019-05-20T08:48:00.625Z,130
2019-05-20T08:49:00.856Z,135
2019-05-20T08:50:04.844Z,135
2019-05-20T08:51:00.882Z,140
2019-05-20T08:52:01.030Z,145
2019-05-20T08:53:01.140Z,150
2019-05-20T08:54:00.387Z,165
2019-05-20T08:55:04.952Z,185
2019-05-20T08:56:04.256Z,205
2019-05-20T08:57:00.624Z,215
2019-05-20T08:58:01.234Z,235
2019-05-20T08:59:01.075Z,250
2019-05-20T09:00:00.889Z,275
2019-05-20T09:01:00.652Z,290
2019-05-20T09:02:01.100Z,300
2019-05-20T09:03:01.258Z,305
2019-05-20T09:04:04.337Z,305
2019-05-20T09:05:00.531Z,300
2019-05-20T09:06:07.456Z,290
2019-05-20T09:07:03.911Z,280
2019-05-20T09:08:15.634Z,260
2019-05-20T09:09:00.863Z,245
2019-05-20T09:10:01.133Z,235
2019-05-20T09:11:00.600Z,230
2019-05-20T09:12:00.938Z,225
2019-05-20T09:13:01.114Z,225
2019-05-20T09:14:00.858Z,220
2019-05-20T09:15:00.366Z,220
2019-05-20T09:16:01.771Z,220
2019-05-20T09:17:03.886Z,225
2019-05-20T09:18:01.152Z,225
2019-05-20T09:19:01.185Z,220
2019-05-20T09:20:00.590Z,215
2019-05-20T09:21:00.833Z,210
2019-05-20T09:22:00.692Z,200
2019-05-20T09:23:02.745Z,200
2019-05-20T09:24:00.852Z,210
2019-05-20T09:25:01.819Z,210
2019-05-20T09:26:00.585Z,220
2019-05-20T09:27:04.016Z,230
2019-05-20T09:28:03.917Z,240
2019-05-20T09:29:00.842Z,250
2019-05-20T09:30:00.661Z,265
2019-05-20T09:31:00.369Z,285
2019-05-20T09:32:01.093Z,295
2019-05-20T09:33:00.635Z,295
2019-05-20T09:34:02.533Z,295
2019-05-20T09:35:00.585Z,295
2019-05-20T09:36:00.949Z,290
2019-05-20T09:37:01.176Z,285
2019-05-20T09:38:17.597Z,260
2019-05-20T09:39:02.503Z,245
2019-05-20T09:40:00.739Z,245
2019-05-20T09:41:00.773Z,225
2019-05-20T09:42:00.975Z,215
2019-05-20T09:43:00.886Z,195
2019-05-20T09:44:00.635Z,190
2019-05-20T09:45:05.203Z,175
2019-05-20T09:46:15.275Z,170
2019-05-20T09:47:00.879Z,165
2019-05-20T09:48:01.471Z,160
2019-05-20T09:49:04.043Z,155
2019-05-20T09:50:07.471Z,150
2019-05-20T09:51:00.357Z,155
2019-05-20T09:52:00.963Z,160
2019-05-20T09:53:00.603Z,170
2019-05-20T09:54:00.593Z,185
2019-05-20T09:55:00.870Z,195
2019-05-20T09:56:00.601Z,200
2019-05-20T09:57:01.106Z,210
2019-05-20T09:58:00.926Z,235
2019-05-20T09:59:04.114Z,255
2019-05-20T10:00:04.019Z,255
2019-05-20T10:01:01.091Z,245
2019-05-20T10:02:00.682Z,250
2019-05-20T10:03:00.862Z,245
2019-05-20T10:04:00.598Z,230
2019-05-20T10:05:01.041Z,210
2019-05-20T10:06:00.603Z,205
2019-05-20T10:07:01.192Z,210
2019-05-20T10:08:01.111Z,215
2019-05-20T10:09:01.136Z,220
2019-05-20T10:10:02.986Z,220
2019-05-20T10:11:07.731Z,220
2019-05-20T10:12:00.847Z,220
2019-05-20T10:13:00.999Z,215
2019-05-20T10:14:00.584Z,215
2019-05-20T10:15:01.913Z,215
2019-05-20T10:16:01.327Z,215
2019-05-20T10:17:00.365Z,205
2019-05-20T10:18:00.932Z,200
2019-05-20T10:19:05.030Z,190
2019-05-20T10:20:00.902Z,185
2019-05-20T10:21:06.886Z,185
2019-05-20T10:22:03.676Z,190
2019-05-20T10:23:00.845Z,195
2019-05-20T10:24:01.148Z,200
2019-05-20T10:25:00.338Z,190
2019-05-20T10:26:00.526Z,190
2019-05-20T10:27:00.828Z,175
2019-05-20T10:28:04.381Z,160
2019-05-20T10:29:01.080Z,145
2019-05-20T10:30:00.602Z,130
2019-05-20T10:31:02.319Z,120
2019-05-20T10:32:04.135Z,110
2019-05-20T10:33:00.650Z,100
2019-05-20T10:34:00.897Z,95
2019-05-20T10:35:01.173Z,90
2019-05-20T10:36:00.593Z,85
2019-05-20T10:37:00.862Z,90
2019-05-20T10:38:01.103Z,85
2019-05-20T10:39:12.454Z,85
2019-05-20T10:40:00.877Z,80
2019-05-20T10:41:00.958Z,75
2019-05-20T10:42:06.403Z,75
2019-05-20T10:43:03.907Z,70
2019-05-20T10:44:00.593Z,70
2019-05-20T10:45:00.592Z,75
2019-05-20T10:46:00.895Z,85
2019-05-20T10:47:00.961Z,80
2019-05-20T10:48:00.925Z,80
2019-05-20T10:49:00.601Z,80
2019-05-20T10:50:00.951Z,75
2019-05-20T10:51:00.567Z,75
2019-05-20T10:52:00.847Z,70
2019-05-20T10:53:03.612Z,65
2019-05-20T10:54:03.113Z,65
2019-05-20T10:55:00.602Z,65
2019-05-20T10:56:02.580Z,60
2019-05-20T10:57:04.480Z,60
2019-05-20T10:58:00.367Z,60
2019-05-20T10:59:00.914Z,65
2019-05-20T11:00:00.819Z,65
2019-05-20T11:01:12.624Z,70
2019-05-20T11:02:00.854Z,75
2019-05-20T11:03:01.549Z,80
2019-05-20T11:04:03.866Z,95
2019-05-20T11:05:00.660Z,105
2019-05-20T11:06:00.911Z,120
2019-05-20T11:07:01.099Z,125
2019-05-20T11:08:01.657Z,120
2019-05-20T11:09:16.038Z,105
2019-05-20T11:10:00.803Z,100
2019-05-20T11:11:00.683Z,90
2019-05-20T11:12:00.548Z,85
2019-05-20T11:13:00.808Z,80
2019-05-20T11:14:04.137Z,75
2019-05-20T11:15:05.227Z,70
2019-05-20T11:16:01.160Z,65
2019-05-20T11:17:01.064Z,60
2019-05-20T11:18:00.815Z,55
2019-05-20T11:19:00.303Z,55
2019-05-20T11:20:01.058Z,55
2019-05-20T11:21:00.664Z,55
2019-05-20T11:22:01.142Z,55
2019-05-20T11:23:03.586Z,55
2019-05-20T11:24:00.603Z,55
2019-05-20T11:25:03.917Z,55
2019-05-20T11:26:02.178Z,60
2019-05-20T11:27:00.563Z,60
2019-05-20T11:28:00.915Z,55
2019-05-20T11:29:01.263Z,55
2019-05-20T11:30:00.880Z,50
2019-05-20T11:31:00.771Z,50
2019-05-20T11:32:00.300Z,50
2019-05-20T11:33:01.158Z,50
2019-05-20T11:34:04.807Z,50
2019-05-20T11:35:01.115Z,50
2019-05-20T11:36:03.602Z,55
2019-05-20T11:37:04.144Z,60
2019-05-20T11:38:00.582Z,65
2019-05-20T11:39:00.802Z,70
2019-05-20T11:40:00.790Z,70
2019-05-20T11:41:00.784Z,75
2019-05-20T11:42:03.293Z,75
2019-05-20T11:43:01.095Z,80
2019-05-20T11:44:00.781Z,90
2019-05-20T11:45:00.537Z,100
2019-05-20T11:46:02.919Z,105
2019-05-20T11:47:07.324Z,115
2019-05-20T11:48:00.793Z,125
2019-05-20T11:49:01.033Z,135
2019-05-20T11:50:00.768Z,145
2019-05-20T11:51:01.153Z,150
2019-05-20T11:52:01.056Z,155
2019-05-20T11:53:00.489Z,155
2019-05-20T11:54:00.737Z,155
2019-05-20T11:55:00.528Z,160
2019-05-20T11:56:00.795Z,165
2019-05-20T11:57:07.421Z,180
2019-05-20T11:58:17.650Z,190
2019-05-20T11:59:00.755Z,200
2019-05-20T12:00:01.097Z,215
2019-05-20T12:01:00.501Z,225
2019-05-20T12:02:03.805Z,230
2019-05-20T12:03:00.527Z,240
2019-05-20T12:04:01.022Z,240
2019-05-20T12:05:00.569Z,245
2019-05-20T12:06:01.108Z,255
2019-05-20T12:07:00.767Z,255
2019-05-20T12:08:03.769Z,260
2019-05-20T12:09:04.052Z,265
2019-05-20T12:10:01.100Z,265
2019-05-20T12:11:00.468Z,265
2019-05-20T12:12:00.753Z,270
2019-05-20T12:13:00.883Z,270
2019-05-20T12:14:01.160Z,255
2019-05-20T12:15:00.728Z,245
2019-05-20T12:16:00.975Z,225
2019-05-20T12:17:01.036Z,210
2019-05-20T12:18:02.419Z,210
2019-05-20T12:19:03.526Z,215
2019-05-20T12:20:00.990Z,190
2019-05-20T12:21:00.799Z,165
2019-05-20T12:22:01.057Z,150
2019-05-20T12:23:00.996Z,165
2019-05-20T12:24:00.595Z,200
2019-05-20T12:25:01.456Z,215
2019-05-20T12:26:01.074Z,215
2019-05-20T12:27:00.997Z,215
2019-05-20T12:28:00.484Z,215
2019-05-20T12:29:03.757Z,195
2019-05-20T12:30:04.148Z,210
2019-05-20T12:31:00.999Z,215
2019-05-20T12:32:05.651Z,210
2019-05-20T12:33:33.230Z,200
2019-05-20T12:34:00.974Z,195
2019-05-20T12:35:01.003Z,195
2019-05-20T12:36:00.816Z,200
2019-05-20T12:37:01.081Z,205
2019-05-20T12:38:01.075Z,205
2019-05-20T12:39:01.012Z,210
2019-05-20T12:40:16.041Z,215
2019-05-20T12:41:02.156Z,220
2019-05-20T12:42:00.766Z,215
2019-05-20T12:43:00.974Z,205
2019-05-20T12:44:23.346Z,205
2019-05-20T12:45:00.751Z,210
2019-05-20T12:46:01.085Z,210
2019-05-20T12:47:00.505Z,205
2019-05-20T12:48:00.757Z,205
2019-05-20T12:49:01.568Z,195
2019-05-20T12:50:00.698Z,180
2019-05-20T12:51:05.299Z,195
2019-05-20T12:52:07.140Z,210
2019-05-20T12:53:00.985Z,220
2019-05-20T12:54:00.988Z,215
2019-05-20T12:55:17.382Z,210
2019-05-20T12:56:00.729Z,220
2019-05-20T12:57:00.765Z,235
2019-05-20T12:58:00.513Z,220
2019-05-20T12:59:01.017Z,225
2019-05-20T13:00:01.311Z,230
2019-05-20T13:01:03.796Z,225
2019-05-20T13:02:07.190Z,230
2019-05-20T13:03:00.259Z,230
2019-05-20T13:04:00.542Z,235
2019-05-20T13:05:00.993Z,240
2019-05-20T13:06:00.762Z,245
2019-05-20T13:07:01.039Z,240
2019-05-20T13:08:00.802Z,225
2019-05-20T13:09:00.965Z,215
2019-05-20T13:10:05.147Z,210
2019-05-20T13:11:01.164Z,190
2019-05-20T13:12:02.395Z,190
2019-05-20T13:13:03.829Z,180
2019-05-20T13:14:00.810Z,175
2019-05-20T13:15:00.537Z,175
2019-05-20T13:16:00.566Z,170
2019-05-20T13:17:00.758Z,170
2019-05-20T13:18:00.514Z,155
2019-05-20T13:19:05.415Z,150
2019-05-20T13:20:00.761Z,150
2019-05-20T13:21:00.522Z,160
2019-05-20T13:22:00.758Z,150
2019-05-20T13:23:15.153Z,150
2019-05-20T13:24:05.691Z,155
2019-05-20T13:25:01.028Z,170
2019-05-20T13:26:00.776Z,190
2019-05-20T13:27:00.506Z,195
2019-05-20T13:28:00.500Z,200
2019-05-20T13:29:04.318Z,190
2019-05-20T13:30:00.507Z,180
2019-05-20T13:31:01.025Z,155
2019-05-20T13:32:00.759Z,145
2019-05-20T13:33:02.183Z,125
2019-05-20T13:34:04.081Z,125
2019-05-20T13:35:00.268Z,125
2019-05-20T13:36:00.801Z,130
2019-05-20T13:37:00.621Z,130
2019-05-20T13:38:00.527Z,125
2019-05-20T13:39:00.495Z,120
2019-05-20T13:40:05.620Z,120
2019-05-20T13:41:00.786Z,130
2019-05-20T13:42:00.999Z,140
2019-05-20T13:43:00.761Z,160
2019-05-20T13:44:03.765Z,170
2019-05-20T13:45:03.813Z,150
2019-05-20T13:46:00.622Z,150
2019-05-20T13:47:00.569Z,140
2019-05-20T13:48:01.058Z,140
2019-05-20T13:49:00.577Z,150
2019-05-20T13:50:00.770Z,160
2019-05-20T13:51:00.778Z,185
2019-05-20T13:52:00.788Z,200
2019-05-20T13:53:00.619Z,195
2019-05-20T13:54:01.006Z,195
2019-05-20T13:55:03.852Z,190
2019-05-20T13:56:02.430Z,210
2019-05-20T13:57:00.574Z,225
2019-05-20T13:58:01.058Z,230
2019-05-20T13:59:00.749Z,235
2019-05-20T14:00:00.781Z,230
2019-05-20T14:01:01.002Z,200
2019-05-20T14:02:00.770Z,190
2019-05-20T14:03:00.609Z,195
2019-05-20T14:04:04.042Z,185
2019-05-20T14:05:01.382Z,175
2019-05-20T14:06:03.780Z,165
2019-05-20T14:07:00.543Z,165
2019-05-20T14:08:00.015Z,180
2019-05-20T14:09:00.753Z,170